createdAt,value
2019-05-14T00:01:27.257Z,7.34
2019-05-14T00:03:53.985Z,7.52
2019-05-14T00:06:21.902Z,7.53
2019-05-14T00:08:47.470Z,7.44
2019-05-14T00:11:14.195Z,7.15
2019-05-14T00:13:41.304Z,6.90
2019-05-14T00:16:07.665Z,6.86
2019-05-14T00:18:34.402Z,6.77
2019-05-14T00:21:01.875Z,6.83
2019-05-14T00:23:27.910Z,6.76
2019-05-14T00:25:54.644Z,6.73
2019-05-14T00:28:21.371Z,6.49
2019-05-14T00:30:48.131Z,6.54
2019-05-14T00:33:14.862Z,6.53
2019-05-14T00:35:41.615Z,6.43
2019-05-14T00:38:08.335Z,6.38
2019-05-14T00:40:35.073Z,6.30
2019-05-14T00:43:02.703Z,6.19
2019-05-14T00:45:28.666Z,6.00
2019-05-14T00:47:55.398Z,6.00
2019-05-14T00:50:22.139Z,6.04
2019-05-14T00:52:48.869Z,6.01
2019-05-14T00:55:15.610Z,6.02
2019-05-14T00:57:42.814Z,6.07
2019-05-14T01:00:11.501Z,6.08
2019-05-14T01:02:35.842Z,6.12
2019-05-14T01:05:02.711Z,6.21
2019-05-14T01:07:31.508Z,6.21
2019-05-14T01:09:56.206Z,6.28
2019-05-14T01:12:22.937Z,6.08
2019-05-14T01:14:52.944Z,6.14
2019-05-14T01:17:16.417Z,6.44
2019-05-14T01:19:43.162Z,6.52
2019-05-14T01:22:12.226Z,6.50
2019-05-14T01:24:36.629Z,6.43
2019-05-14T01:27:03.442Z,6.83
2019-05-14T01:29:31.676Z,6.60
2019-05-14T01:31:57.014Z,6.55
2019-05-14T01:34:23.875Z,6.48
2019-05-14T01:36:52.763Z,6.33
2019-05-14T01:39:17.358Z,6.33
2019-05-14T01:41:44.096Z,6.32
2019-05-14T01:44:11.976Z,6.32
2019-05-14T01:46:37.622Z,6.24
2019-05-14T01:49:04.342Z,6.25
2019-05-14T01:51:31.739Z,6.19
2019-05-14T01:53:57.814Z,6.29
2019-05-14T01:56:24.569Z,6.23
2019-05-14T01:58:52.278Z,6.23
2019-05-14T02:01:18.058Z,6.22
2019-05-14T02:03:44.782Z,6.36
2019-05-14T02:06:11.917Z,6.39
2019-05-14T02:08:38.258Z,6.48
2019-05-14T02:11:05.016Z,6.41
2019-05-14T02:13:32.258Z,6.40
2019-05-14T02:15:58.486Z,6.26
2019-05-14T02:18:25.210Z,6.25
2019-05-14T02:20:52.287Z,6.30
2019-05-14T02:23:18.690Z,6.48
2019-05-14T02:25:45.422Z,6.54
2019-05-14T02:28:12.137Z,6.56
2019-05-14T02:30:52.572Z,6.50
2019-05-14T02:33:05.619Z,6.65
2019-05-14T02:35:32.359Z,6.61
2019-05-14T02:37:59.755Z,6.52
2019-05-14T02:40:29.213Z,6.49
2019-05-14T02:42:52.592Z,6.43
2019-05-14T02:45:19.990Z,6.39
2019-05-14T02:47:46.138Z,6.39
2019-05-14T02:50:12.864Z,6.38
2019-05-14T02:52:40.468Z,6.32
2019-05-14T02:55:09.180Z,6.30
2019-05-14T02:57:33.067Z,6.25
2019-05-14T02:59:59.913Z,6.46
2019-05-14T03:02:29.465Z,6.29
2019-05-14T03:04:53.239Z,6.22
2019-05-14T03:07:19.981Z,6.21
2019-05-14T03:09:49.853Z,6.10
2019-05-14T03:12:13.459Z,6.11
2019-05-14T03:14:40.380Z,6.18
2019-05-14T03:17:10.055Z,6.13
2019-05-14T03:19:33.688Z,6.02
2019-05-14T03:22:00.551Z,5.92
2019-05-14T03:24:28.886Z,5.84
2019-05-14T03:26:53.911Z,5.76
2019-05-14T03:29:20.636Z,5.66
2019-05-14T03:31:52.616Z,5.58
2019-05-14T03:34:14.603Z,5.58
2019-05-14T03:36:42.803Z,5.52
2019-05-14T03:39:10.498Z,5.51
2019-05-14T03:41:34.410Z,5.53
2019-05-14T03:44:01.123Z,5.64
2019-05-14T03:46:44.221Z,5.71
2019-05-14T03:48:54.584Z,5.70
2019-05-14T03:51:21.589Z,5.71
2019-05-14T03:53:56.992Z,5.73
2019-05-14T03:56:15.079Z,5.77
2019-05-14T03:58:41.833Z,5.73
2019-05-14T04:01:09.708Z,5.79
2019-05-14T04:03:35.410Z,5.82
2019-05-14T04:06:02.251Z,5.75
2019-05-14T04:08:29.662Z,5.74
2019-05-14T04:10:59.005Z,5.77
2019-05-14T04:13:22.916Z,5.80
2019-05-14T04:15:49.970Z,5.90
2019-05-14T04:18:18.498Z,6.04
2019-05-14T04:20:43.191Z,6.08
2019-05-14T04:23:09.919Z,6.15
2019-05-14T04:25:39.044Z,6.20
2019-05-14T04:28:03.603Z,6.28
2019-05-14T04:30:30.550Z,6.27
2019-05-14T04:32:59.393Z,6.40
2019-05-14T04:35:24.035Z,6.39
2019-05-14T04:37:50.764Z,6.64
2019-05-14T04:40:18.979Z,6.72
2019-05-14T04:42:44.271Z,6.80
2019-05-14T04:45:11.583Z,6.91
2019-05-14T04:47:42.069Z,7.01
2019-05-14T04:50:05.039Z,7.08
2019-05-14T04:52:31.822Z,7.21
2019-05-14T04:54:59.363Z,7.26
2019-05-14T04:57:25.814Z,7.40
2019-05-14T04:59:52.171Z,7.55
2019-05-14T05:02:19.805Z,7.67
2019-05-14T05:04:50.305Z,7.87
2019-05-14T05:07:12.426Z,7.79
2019-05-14T05:09:39.955Z,7.90
2019-05-14T05:12:08.850Z,7.95
2019-05-14T05:14:32.825Z,7.99
2019-05-14T05:16:59.904Z,7.91
2019-05-14T05:19:28.857Z,7.89
2019-05-14T05:21:53.045Z,7.97
2019-05-14T05:24:19.826Z,8.02
2019-05-14T05:26:48.576Z,8.13
2019-05-14T05:29:13.300Z,8.17
2019-05-14T05:31:40.030Z,8.23
2019-05-14T05:34:08.962Z,8.36
2019-05-14T05:36:33.529Z,8.47
2019-05-14T05:39:00.267Z,8.41
2019-05-14T05:41:28.252Z,8.44
2019-05-14T05:43:53.726Z,8.45
2019-05-14T05:46:20.458Z,8.71
2019-05-14T05:48:48.210Z,8.86
2019-05-14T05:51:13.942Z,9.02
2019-05-14T05:53:40.690Z,8.95
2019-05-14T05:56:09.012Z,9.03
2019-05-14T05:58:34.167Z,9.00
2019-05-14T06:01:00.887Z,9.18
2019-05-14T06:03:30.112Z,9.20
2019-05-14T06:05:54.361Z,9.17
2019-05-14T06:08:21.101Z,9.06
2019-05-14T06:10:48.978Z,9.17
2019-05-14T06:13:14.640Z,9.19
2019-05-14T06:15:47.917Z,9.37
2019-05-14T06:18:15.236Z,9.34
2019-05-14T06:20:34.859Z,9.34
2019-05-14T06:23:01.591Z,9.58
2019-05-14T06:25:31.284Z,9.79
2019-05-14T06:27:55.054Z,9.90
2019-05-14T06:30:33.475Z,9.83
2019-05-14T06:33:00.206Z,10.05
2019-05-14T06:35:28.457Z,10.17
2019-05-14T06:37:53.666Z,10.06
2019-05-14T06:40:20.416Z,9.92
2019-05-14T06:42:48.608Z,10.06
2019-05-14T06:45:13.869Z,10.04
2019-05-14T06:47:40.603Z,10.12
2019-05-14T06:50:08.589Z,10.23
2019-05-14T06:52:34.074Z,10.34
2019-05-14T06:55:00.823Z,10.54
2019-05-14T06:57:28.548Z,10.89
2019-05-14T06:59:54.293Z,10.81
2019-05-14T07:02:21.026Z,10.93
2019-05-14T07:04:48.420Z,11.11
2019-05-14T07:07:14.502Z,11.13
2019-05-14T07:09:41.248Z,11.11
2019-05-14T07:12:09.057Z,11.17
2019-05-14T07:14:34.686Z,11.35
2019-05-14T07:17:01.434Z,10.82
2019-05-14T07:19:29.478Z,11.14
2019-05-14T07:21:54.902Z,11.49
2019-05-14T07:24:21.646Z,11.37
2019-05-14T07:26:49.411Z,11.63
2019-05-14T07:29:15.153Z,12.11
2019-05-14T07:31:41.866Z,11.95
2019-05-14T07:34:08.992Z,11.42
2019-05-14T07:36:35.338Z,11.65
2019-05-14T07:39:02.114Z,11.47
2019-05-14T07:41:28.845Z,11.73
2019-05-14T07:43:55.554Z,11.91
2019-05-14T07:46:22.374Z,11.88
2019-05-14T07:49:03.526Z,11.97
2019-05-14T07:51:15.835Z,12.14
2019-05-14T07:53:42.749Z,12.59
2019-05-14T07:56:09.610Z,12.70
2019-05-14T07:58:38.473Z,12.41
2019-05-14T08:01:02.748Z,12.24
2019-05-14T08:03:29.546Z,12.57
2019-05-14T08:05:58.662Z,12.69
2019-05-14T08:08:23.005Z,12.60
2019-05-14T08:10:49.743Z,12.60
2019-05-14T08:13:18.875Z,12.83
2019-05-14T08:15:43.206Z,12.75
2019-05-14T08:18:09.917Z,13.01
2019-05-14T08:20:37.959Z,12.67
2019-05-14T08:23:03.411Z,13.11
2019-05-14T08:25:30.149Z,12.91
2019-05-14T08:27:58.664Z,13.07
2019-05-14T08:30:23.642Z,12.83
2019-05-14T08:32:50.363Z,13.03
2019-05-14T08:35:18.536Z,13.31
2019-05-14T08:37:43.822Z,13.80
2019-05-14T08:40:10.567Z,13.43
2019-05-14T08:42:38.328Z,13.74
2019-05-14T08:45:04.764Z,13.72
2019-05-14T08:47:30.835Z,13.72
2019-05-14T08:49:59.894Z,13.86
2019-05-14T08:52:24.291Z,13.75
2019-05-14T08:55:05.360Z,14.02
2019-05-14T08:57:18.984Z,13.96
2019-05-14T08:59:44.526Z,14.21
2019-05-14T09:02:11.254Z,13.92
2019-05-14T09:04:43.090Z,14.63
2019-05-14T09:07:04.776Z,14.22
2019-05-14T09:09:31.498Z,14.48
2019-05-14T09:11:59.956Z,15.08
2019-05-14T09:14:24.946Z,14.73
2019-05-14T09:16:51.738Z,14.80
2019-05-14T09:19:19.243Z,15.33
2019-05-14T09:21:45.167Z,15.47
2019-05-14T09:24:11.906Z,15.39
2019-05-14T09:26:39.103Z,15.67
2019-05-14T09:29:18.132Z,15.96
2019-05-14T09:31:32.142Z,16.02
2019-05-14T09:33:58.879Z,16.23
2019-05-14T09:36:25.593Z,16.28
2019-05-14T09:38:52.322Z,15.94
2019-05-14T09:41:19.226Z,15.51
2019-05-14T09:43:48.407Z,15.98
2019-05-14T09:46:12.721Z,16.98
2019-05-14T09:48:39.442Z,17.11
2019-05-14T09:51:06.198Z,16.73
2019-05-14T09:53:32.921Z,15.86
2019-05-14T09:55:59.646Z,15.46
2019-05-14T09:58:28.268Z,16.16
2019-05-14T10:00:53.112Z,15.94
2019-05-14T10:03:19.874Z,15.85
2019-05-14T10:05:46.601Z,15.22
2019-05-14T10:08:13.358Z,15.03
2019-05-14T10:10:40.292Z,14.98
2019-05-14T10:13:09.701Z,14.74
2019-05-14T10:15:33.734Z,14.64
2019-05-14T10:18:00.680Z,14.64
2019-05-14T10:20:40.238Z,14.82
2019-05-14T10:22:53.988Z,15.42
2019-05-14T10:25:20.714Z,15.70
2019-05-14T10:27:48.581Z,16.31
2019-05-14T10:30:14.198Z,15.18
2019-05-14T10:32:41.831Z,15.24
2019-05-14T10:35:10.233Z,15.32
2019-05-14T10:37:39.793Z,15.22
2019-05-14T10:40:04.567Z,15.85
2019-05-14T10:42:31.299Z,15.45
2019-05-14T10:44:58.754Z,14.93
2019-05-14T10:47:24.758Z,14.98
2019-05-14T10:49:51.527Z,15.69
2019-05-14T10:52:19.769Z,16.00
2019-05-14T10:54:55.441Z,15.31
2019-05-14T10:57:11.720Z,14.94
2019-05-14T10:59:38.465Z,15.19
2019-05-14T11:02:05.177Z,15.78
2019-05-14T11:04:34.415Z,16.10
2019-05-14T11:06:58.690Z,16.33
2019-05-14T11:09:25.386Z,16.56
2019-05-14T11:11:52.121Z,16.10
2019-05-14T11:14:19.371Z,15.80
2019-05-14T11:16:45.592Z,15.72
2019-05-14T11:19:12.358Z,15.62
2019-05-14T11:21:39.342Z,15.65
2019-05-14T11:24:05.830Z,15.92
2019-05-14T11:26:32.663Z,16.07
2019-05-14T11:28:59.411Z,16.76
2019-05-14T11:31:26.135Z,17.15
2019-05-14T11:33:52.880Z,16.75
2019-05-14T11:36:19.605Z,16.70
2019-05-14T11:38:46.678Z,15.96
2019-05-14T11:41:13.490Z,16.25
2019-05-14T11:43:40.239Z,16.90
2019-05-14T11:46:08.582Z,16.77
2019-05-14T11:48:33.740Z,16.81
2019-05-14T11:51:00.484Z,16.69
2019-05-14T11:53:27.247Z,16.02
2019-05-14T11:55:53.974Z,16.30
2019-05-14T11:58:21.565Z,16.46
2019-05-14T12:00:47.467Z,16.50
2019-05-14T12:03:14.236Z,16.03
2019-05-14T12:05:41.017Z,16.14
2019-05-14T12:08:08.687Z,16.13
2019-05-14T12:10:34.432Z,16.82
2019-05-14T12:13:01.197Z,17.09
2019-05-14T12:15:27.920Z,16.76
2019-05-14T12:17:54.675Z,16.50
2019-05-14T12:20:21.367Z,16.53
2019-05-14T12:22:48.739Z,15.81
2019-05-14T12:25:14.914Z,15.70
2019-05-14T12:27:41.644Z,15.23
2019-05-14T12:30:09.649Z,15.27
2019-05-14T12:32:35.380Z,15.01
2019-05-14T12:35:02.233Z,15.23
2019-05-14T12:37:29.029Z,15.53
2019-05-14T12:39:55.710Z,16.13
2019-05-14T12:42:22.430Z,16.12
2019-05-14T12:44:49.178Z,16.36
2019-05-14T12:47:18.564Z,16.49
2019-05-14T12:49:42.652Z,16.02
2019-05-14T12:52:19.130Z,16.06
2019-05-14T12:54:38.463Z,15.95
2019-05-14T12:57:02.862Z,15.72
2019-05-14T12:59:29.623Z,15.96
2019-05-14T13:01:58.506Z,16.56
2019-05-14T13:04:23.110Z,16.35
2019-05-14T13:06:49.826Z,16.79
2019-05-14T13:09:21.351Z,16.71
2019-05-14T13:11:43.291Z,16.52
2019-05-14T13:14:10.058Z,16.62
2019-05-14T13:16:39.471Z,16.30
2019-05-14T13:19:03.553Z,15.89
2019-05-14T13:21:30.279Z,15.92
2019-05-14T13:23:57.019Z,16.12
2019-05-14T13:26:23.906Z,15.93
2019-05-14T13:28:51.217Z,16.05
2019-05-14T13:33:48.913Z,17.26
2019-05-14T13:36:13.743Z,17.12
2019-05-14T13:38:40.532Z,17.27
2019-05-14T13:41:08.692Z,17.35
2019-05-14T13:43:34.052Z,17.01
2019-05-14T13:46:00.872Z,16.97
2019-05-14T13:48:29.641Z,17.26
2019-05-14T13:50:54.377Z,17.09
2019-05-14T13:53:21.074Z,17.19
2019-05-14T13:55:56.805Z,17.33
2019-05-14T13:58:14.811Z,16.32
2019-05-14T14:00:41.542Z,16.11
2019-05-14T14:03:10.163Z,15.93
2019-05-14T14:05:35.005Z,15.67
2019-05-14T14:08:01.726Z,15.90
2019-05-14T14:10:35.585Z,16.76
2019-05-14T14:12:55.198Z,17.05
2019-05-14T14:15:21.950Z,16.99
2019-05-14T14:17:49.524Z,16.51
2019-05-14T14:20:15.440Z,16.32
2019-05-14T14:22:42.155Z,16.01
2019-05-14T14:25:09.274Z,15.90
2019-05-14T14:27:35.634Z,15.71
2019-05-14T14:30:02.417Z,15.70
2019-05-14T14:32:29.515Z,15.79
2019-05-14T14:34:58.764Z,15.92
2019-05-14T14:37:22.991Z,16.18
2019-05-14T14:39:49.746Z,16.43
2019-05-14T14:42:19.258Z,16.23
2019-05-14T14:44:43.252Z,15.99
2019-05-14T14:47:09.966Z,16.07
2019-05-14T14:49:42.278Z,16.03
2019-05-14T14:52:03.441Z,15.85
2019-05-14T14:54:30.161Z,16.10
2019-05-14T14:56:59.069Z,16.52
2019-05-14T14:59:23.674Z,16.47
2019-05-14T15:01:50.532Z,15.99
2019-05-14T15:04:19.318Z,15.98
2019-05-14T15:06:43.934Z,15.83
2019-05-14T15:09:10.676Z,15.71
2019-05-14T15:11:39.653Z,15.92
2019-05-14T15:14:04.297Z,15.93
2019-05-14T15:16:31.060Z,16.59
2019-05-14T15:18:58.344Z,16.53
2019-05-14T15:21:24.693Z,16.79
2019-05-14T15:24:05.589Z,16.18
2019-05-14T15:26:19.356Z,15.81
2019-05-14T15:28:44.959Z,15.85
2019-05-14T15:31:11.812Z,15.86
2019-05-14T15:33:38.532Z,15.73
2019-05-14T15:36:05.290Z,15.46
2019-05-14T15:38:32.033Z,15.39
2019-05-14T15:40:59.656Z,15.76
2019-05-14T15:43:28.503Z,15.75
2019-05-14T15:45:52.603Z,15.68
2019-05-14T15:48:20.034Z,16.04
2019-05-14T15:50:46.127Z,16.65
2019-05-14T15:53:12.866Z,17.21
2019-05-14T15:55:39.622Z,17.25
2019-05-14T15:58:08.760Z,17.31
2019-05-14T16:00:33.215Z,16.93
2019-05-14T16:03:00.361Z,16.51
2019-05-14T16:05:28.480Z,16.10
2019-05-14T16:07:53.547Z,15.69
2019-05-14T16:10:21.721Z,15.22
2019-05-14T16:12:49.598Z,15.23
2019-05-14T16:15:13.854Z,15.71
2019-05-14T16:18:04.256Z,16.26
2019-05-14T16:20:09.043Z,16.36
2019-05-14T16:22:34.267Z,15.99
2019-05-14T16:25:01.226Z,15.78
2019-05-14T16:27:29.790Z,15.21
2019-05-14T16:29:54.469Z,14.99
2019-05-14T16:32:21.218Z,14.90
2019-05-14T16:34:48.863Z,14.85
2019-05-14T16:37:14.699Z,14.77
2019-05-14T16:39:41.425Z,14.78
2019-05-14T16:42:08.210Z,14.75
2019-05-14T16:44:35.038Z,14.69
2019-05-14T16:47:01.813Z,14.70
2019-05-14T16:49:29.573Z,14.87
2019-05-14T16:51:55.380Z,15.19
2019-05-14T16:54:22.141Z,15.56
2019-05-14T16:56:48.950Z,15.72
2019-05-14T16:59:15.673Z,15.98
2019-05-14T17:01:42.418Z,15.77
2019-05-14T17:04:09.415Z,15.51
2019-05-14T17:06:38.442Z,15.08
2019-05-14T17:09:03.214Z,14.91
2019-05-14T17:11:29.943Z,14.82
2019-05-14T17:13:58.004Z,14.62
2019-05-14T17:16:23.446Z,14.47
2019-05-14T17:18:50.170Z,14.45
2019-05-14T17:21:18.274Z,14.39
2019-05-14T17:23:43.650Z,14.39
2019-05-14T17:26:10.406Z,14.29
2019-05-14T17:28:40.102Z,14.20
2019-05-14T17:31:03.889Z,14.15
2019-05-14T17:33:30.618Z,14.05
2019-05-14T17:35:58.668Z,14.02
2019-05-14T17:38:24.088Z,13.93
2019-05-14T17:40:50.814Z,13.97
2019-05-14T17:43:19.156Z,13.83
2019-05-14T17:45:44.403Z,13.89
2019-05-14T17:48:11.223Z,14.00
2019-05-14T17:50:38.520Z,14.29
2019-05-14T17:53:04.675Z,14.11
2019-05-14T17:55:43.488Z,14.17
2019-05-14T17:58:00.058Z,14.15
2019-05-14T18:00:24.909Z,14.14
2019-05-14T18:02:51.645Z,14.14
2019-05-14T18:05:18.855Z,14.07
2019-05-14T18:07:45.225Z,13.96
2019-05-14T18:10:11.957Z,14.00
2019-05-14T18:12:39.911Z,14.09
2019-05-14T18:15:05.445Z,14.06
2019-05-14T18:17:32.263Z,13.96
2019-05-14T18:19:59.009Z,13.90
2019-05-14T18:22:28.459Z,13.55
2019-05-14T18:24:52.481Z,13.66
2019-05-14T18:27:19.649Z,13.80
2019-05-14T18:29:48.683Z,13.53
2019-05-14T18:32:12.681Z,13.45
2019-05-14T18:34:39.428Z,13.38
2019-05-14T18:37:13.456Z,13.13
2019-05-14T18:39:32.942Z,13.03
2019-05-14T18:42:00.613Z,12.99
2019-05-14T18:44:28.410Z,12.91
2019-05-14T18:46:53.146Z,12.77
2019-05-14T18:49:19.883Z,12.63
2019-05-14T18:51:46.602Z,12.52
2019-05-14T18:54:13.335Z,12.37
2019-05-14T18:56:40.051Z,12.28
2019-05-14T18:59:08.893Z,12.14
2019-05-14T19:01:33.544Z,12.08
2019-05-14T19:04:00.350Z,12.12
2019-05-14T19:06:28.350Z,11.89
2019-05-14T19:08:53.914Z,11.77
2019-05-14T19:11:20.795Z,11.67
2019-05-14T19:13:48.407Z,11.63
2019-05-14T19:16:14.254Z,11.52
2019-05-14T19:18:40.971Z,11.54
2019-05-14T19:21:08.917Z,11.37
2019-05-14T19:23:35.397Z,11.16
2019-05-14T19:26:02.246Z,11.07
2019-05-14T19:28:29.008Z,10.95
2019-05-14T19:30:55.739Z,10.99
2019-05-14T19:33:22.458Z,10.89
2019-05-14T19:35:49.195Z,10.75
2019-05-14T19:38:17.936Z,10.73
2019-05-14T19:40:42.814Z,10.67
2019-05-14T19:43:09.601Z,10.62
2019-05-14T19:45:38.425Z,10.53
2019-05-14T19:48:03.090Z,10.51
2019-05-14T19:50:29.847Z,10.42
2019-05-14T19:52:58.806Z,10.47
2019-05-14T19:55:23.294Z,10.47
2019-05-14T19:57:50.029Z,10.38
2019-05-14T20:00:21.733Z,10.20
2019-05-14T20:02:48.764Z,9.95
2019-05-14T20:05:15.194Z,9.94
2019-05-14T20:07:42.022Z,9.99
2019-05-14T20:10:08.991Z,10.14
2019-05-14T20:12:35.475Z,10.09
2019-05-14T20:15:02.259Z,10.16
2019-05-14T20:17:28.997Z,10.12
2019-05-14T20:19:57.843Z,10.39
2019-05-14T20:22:22.457Z,10.31
2019-05-14T20:24:49.182Z,10.37
2019-05-14T20:27:15.959Z,10.15
2019-05-14T20:29:42.667Z,10.16
2019-05-14T20:32:09.406Z,10.09
2019-05-14T20:34:36.117Z,10.06
2019-05-14T20:37:02.874Z,9.96
2019-05-14T20:39:32.977Z,10.30
2019-05-14T20:41:58.372Z,10.03
2019-05-14T20:44:23.075Z,9.93
2019-05-14T20:46:49.826Z,10.12
2019-05-14T20:49:18.868Z,10.11
2019-05-14T20:51:43.294Z,9.86
2019-05-14T20:54:10.019Z,10.00
2019-05-14T20:56:36.769Z,9.73
2019-05-14T20:59:03.497Z,9.59
2019-05-14T21:01:30.242Z,9.55
2019-05-14T21:03:59.087Z,9.55
2019-05-14T21:06:23.706Z,9.45
2019-05-14T21:08:50.435Z,9.38
2019-05-14T21:11:19.116Z,9.47
2019-05-14T21:13:43.902Z,9.41
2019-05-14T21:16:10.865Z,9.41
2019-05-14T21:18:40.906Z,9.45
2019-05-14T21:21:04.270Z,9.48
2019-05-14T21:23:30.982Z,9.54
2019-05-14T21:25:57.862Z,9.53
2019-05-14T21:28:24.654Z,9.53
2019-05-14T21:30:51.387Z,9.36
2019-05-14T21:33:18.117Z,9.16
2019-05-14T21:35:44.834Z,9.06
2019-05-14T21:38:11.598Z,9.25
2019-05-14T21:40:39.018Z,9.22
2019-05-14T21:43:05.063Z,9.31
2019-05-14T21:45:31.770Z,9.19
2019-05-14T21:47:59.427Z,9.10
2019-05-14T21:50:25.354Z,9.01
2019-05-14T21:52:52.102Z,9.22
2019-05-14T21:55:19.866Z,9.10
2019-05-14T21:57:54.337Z,9.23
2019-05-14T22:00:18.417Z,8.75
2019-05-14T22:02:42.533Z,8.87
2019-05-14T22:05:09.608Z,8.76
2019-05-14T22:07:35.990Z,8.66
2019-05-14T22:10:03.121Z,8.63
2019-05-14T22:12:29.854Z,8.66
2019-05-14T22:14:58.845Z,8.58
2019-05-14T22:17:23.318Z,8.49
2019-05-14T22:19:50.047Z,8.41
2019-05-14T22:22:18.668Z,8.36
2019-05-14T22:24:43.543Z,8.26
2019-05-14T22:27:10.287Z,8.45
2019-05-14T22:29:37.009Z,8.44
2019-05-14T22:32:03.754Z,8.49
2019-05-14T22:34:30.475Z,8.61
2019-05-14T22:36:58.122Z,8.59
2019-05-14T22:39:23.942Z,8.67
2019-05-14T22:41:50.685Z,8.59
2019-05-14T22:44:18.699Z,8.62
2019-05-14T22:46:44.133Z,8.49
2019-05-14T22:49:10.875Z,8.35
2019-05-14T22:51:38.338Z,8.44
2019-05-14T22:54:04.336Z,8.33
2019-05-14T22:56:31.062Z,8.31
2019-05-14T22:58:58.289Z,8.26
2019-05-14T23:01:24.511Z,8.22
2019-05-14T23:03:51.247Z,8.47
2019-05-14T23:06:18.831Z,8.38
2019-05-14T23:08:44.722Z,8.16
2019-05-14T23:11:11.453Z,7.98
2019-05-14T23:13:39.194Z,7.48
2019-05-14T23:16:04.947Z,7.21
2019-05-14T23:18:31.690Z,7.00
2019-05-14T23:20:58.955Z,6.91
2019-05-14T23:23:25.162Z,7.06
2019-05-14T23:25:51.895Z,7.24
2019-05-14T23:28:19.222Z,7.96
2019-05-14T23:30:45.372Z,7.61
2019-05-14T23:33:12.114Z,7.55
2019-05-14T23:35:39.193Z,7.64
2019-05-14T23:38:05.583Z,7.51
2019-05-14T23:40:32.314Z,7.23
2019-05-14T23:42:59.061Z,7.12
2019-05-14T23:45:25.786Z,7.02
2019-05-14T23:47:52.506Z,6.97
2019-05-14T23:50:19.242Z,6.62
2019-05-14T23:52:45.980Z,6.35
2019-05-14T23:55:12.703Z,6.24
2019-05-14T23:57:39.502Z,6.21
